sensor_id;sensor_type;location;lat;lon;timestamp;temperature;humidity
20479;DHT22;10398;52.490;13.434;2022-07-21T00:00:30;25.80;75.70
20479;DHT22;10398;52.490;13.434;2022-07-21T00:02:56;25.80;75.10
20479;DHT22;10398;52.490;13.434;2022-07-21T00:05:23;25.80;75.30
20479;DHT22;10398;52.490;13.434;2022-07-21T00:07:50;25.80;76.10
20479;DHT22;10398;52.490;13.434;2022-07-21T00:10:17;25.80;76.20
20479;DHT22;10398;52.490;13.434;2022-07-21T00:12:43;25.80;76.20
20479;DHT22;10398;52.490;13.434;2022-07-21T00:15:10;25.70;76.30
20479;DHT22;10398;52.490;13.434;2022-07-21T00:17:35;25.70;76.60
20479;DHT22;10398;52.490;13.434;2022-07-21T00:20:02;25.70;75.90
20479;DHT22;10398;52.490;13.434;2022-07-21T00:22:28;25.70;75.90
20479;DHT22;10398;52.490;13.434;2022-07-21T00:24:54;25.60;75.80
20479;DHT22;10398;52.490;13.434;2022-07-21T00:27:19;25.60;75.90
20479;DHT22;10398;52.490;13.434;2022-07-21T00:29:45;25.60;75.70
20479;DHT22;10398;52.490;13.434;2022-07-21T00:32:11;25.50;76.00
20479;DHT22;10398;52.490;13.434;2022-07-21T00:34:36;25.50;76.20
20479;DHT22;10398;52.490;13.434;2022-07-21T00:37:02;25.50;76.60
20479;DHT22;10398;52.490;13.434;2022-07-21T00:39:27;25.40;76.30
20479;DHT22;10398;52.490;13.434;2022-07-21T00:41:53;25.40;76.30
20479;DHT22;10398;52.490;13.434;2022-07-21T00:44:26;25.40;76.40
20479;DHT22;10398;52.490;13.434;2022-07-21T00:46:53;25.40;76.80
20479;DHT22;10398;52.490;13.434;2022-07-21T00:49:20;25.40;77.00
20479;DHT22;10398;52.490;13.434;2022-07-21T00:51:47;25.40;76.80
20479;DHT22;10398;52.490;13.434;2022-07-21T00:54:15;25.40;76.70
20479;DHT22;10398;52.490;13.434;2022-07-21T00:56:42;25.30;76.70
20479;DHT22;10398;52.490;13.434;2022-07-21T00:59:07;25.30;77.30
20479;DHT22;10398;52.490;13.434;2022-07-21T01:01:33;25.30;77.30
20479;DHT22;10398;52.490;13.434;2022-07-21T01:03:59;25.30;77.80
20479;DHT22;10398;52.490;13.434;2022-07-21T01:06:25;25.20;77.30
20479;DHT22;10398;52.490;13.434;2022-07-21T01:08:51;25.20;77.40
20479;DHT22;10398;52.490;13.434;2022-07-21T01:11:18;25.20;77.30
20479;DHT22;10398;52.490;13.434;2022-07-21T01:13:46;25.20;77.40
20479;DHT22;10398;52.490;13.434;2022-07-21T01:16:11;25.20;77.30
20479;DHT22;10398;52.490;13.434;2022-07-21T01:18:37;25.20;78.00
20479;DHT22;10398;52.490;13.434;2022-07-21T01:21:19;25.10;78.00
20479;DHT22;10398;52.490;13.434;2022-07-21T01:23:52;25.10;77.90
20479;DHT22;10398;52.490;13.434;2022-07-21T01:26:18;25.10;78.40
20479;DHT22;10398;52.490;13.434;2022-07-21T01:28:43;25.10;78.30
20479;DHT22;10398;52.490;13.434;2022-07-21T01:31:09;25.10;78.10
20479;DHT22;10398;52.490;13.434;2022-07-21T01:33:35;25.10;77.90
20479;DHT22;10398;52.490;13.434;2022-07-21T01:36:00;25.10;77.80
20479;DHT22;10398;52.490;13.434;2022-07-21T01:38:26;25.10;77.90
20479;DHT22;10398;52.490;13.434;2022-07-21T01:41:10;25.10;77.60
20479;DHT22;10398;52.490;13.434;2022-07-21T01:43:55;25.10;77.80
20479;DHT22;10398;52.490;13.434;2022-07-21T01:46:21;25.00;77.40
20479;DHT22;10398;52.490;13.434;2022-07-21T01:48:46;25.00;77.40
20479;DHT22;10398;52.490;13.434;2022-07-21T01:51:12;25.00;77.60
20479;DHT22;10398;52.490;13.434;2022-07-21T01:53:38;25.00;77.60
20479;DHT22;10398;52.490;13.434;2022-07-21T01:56:05;25.00;77.80
20479;DHT22;10398;52.490;13.434;2022-07-21T01:58:31;25.00;78.00
20479;DHT22;10398;52.490;13.434;2022-07-21T02:00:57;25.00;77.90
20479;DHT22;10398;52.490;13.434;2022-07-21T02:03:23;25.00;77.80
20479;DHT22;10398;52.490;13.434;2022-07-21T02:05:48;24.90;77.70
20479;DHT22;10398;52.490;13.434;2022-07-21T02:08:14;25.00;78.20
20479;DHT22;10398;52.490;13.434;2022-07-21T02:10:40;24.90;78.00
20479;DHT22;10398;52.490;13.434;2022-07-21T02:13:05;24.90;78.00
20479;DHT22;10398;52.490;13.434;2022-07-21T02:15:31;24.90;78.10
20479;DHT22;10398;52.490;13.434;2022-07-21T02:17:57;24.90;78.40
20479;DHT22;10398;52.490;13.434;2022-07-21T02:20:23;24.90;79.20
20479;DHT22;10398;52.490;13.434;2022-07-21T02:22:49;24.80;78.40
20479;DHT22;10398;52.490;13.434;2022-07-21T02:25:15;24.80;78.40
20479;DHT22;10398;52.490;13.434;2022-07-21T02:27:42;24.80;78.50
20479;DHT22;10398;52.490;13.434;2022-07-21T02:30:09;24.80;78.50
20479;DHT22;10398;52.490;13.434;2022-07-21T02:32:35;24.80;78.50
20479;DHT22;10398;52.490;13.434;2022-07-21T02:35:00;24.80;78.50
20479;DHT22;10398;52.490;13.434;2022-07-21T02:37:27;24.80;78.70
20479;DHT22;10398;52.490;13.434;2022-07-21T02:39:54;24.80;78.60
20479;DHT22;10398;52.490;13.434;2022-07-21T02:42:19;24.80;78.70
20479;DHT22;10398;52.490;13.434;2022-07-21T02:44:45;24.70;78.50
20479;DHT22;10398;52.490;13.434;2022-07-21T02:47:10;24.70;78.60
20479;DHT22;10398;52.490;13.434;2022-07-21T02:49:37;24.80;78.80
20479;DHT22;10398;52.490;13.434;2022-07-21T02:52:03;24.80;78.70
20479;DHT22;10398;52.490;13.434;2022-07-21T02:54:28;24.80;78.50
20479;DHT22;10398;52.490;13.434;2022-07-21T02:56:54;24.80;78.40
20479;DHT22;10398;52.490;13.434;2022-07-21T02:59:20;24.70;78.60
20479;DHT22;10398;52.490;13.434;2022-07-21T03:01:45;24.70;78.40
20479;DHT22;10398;52.490;13.434;2022-07-21T03:04:11;24.70;78.30
20479;DHT22;10398;52.490;13.434;2022-07-21T03:06:37;24.80;78.40
20479;DHT22;10398;52.490;13.434;2022-07-21T03:09:03;24.70;78.40
20479;DHT22;10398;52.490;13.434;2022-07-21T03:11:29;24.70;78.40
20479;DHT22;10398;52.490;13.434;2022-07-21T03:13:55;24.70;78.60
20479;DHT22;10398;52.490;13.434;2022-07-21T03:16:21;24.80;78.60
20479;DHT22;10398;52.490;13.434;2022-07-21T03:18:46;24.80;78.40
20479;DHT22;10398;52.490;13.434;2022-07-21T03:21:13;24.70;78.30
20479;DHT22;10398;52.490;13.434;2022-07-21T03:23:38;24.80;79.40
20479;DHT22;10398;52.490;13.434;2022-07-21T03:26:04;24.80;78.50
20479;DHT22;10398;52.490;13.434;2022-07-21T03:28:30;24.80;78.40
20479;DHT22;10398;52.490;13.434;2022-07-21T03:30:56;24.70;78.50
20479;DHT22;10398;52.490;13.434;2022-07-21T03:33:22;24.80;78.50
20479;DHT22;10398;52.490;13.434;2022-07-21T03:35:47;24.80;78.60
20479;DHT22;10398;52.490;13.434;2022-07-21T03:38:13;24.70;78.70
20479;DHT22;10398;52.490;13.434;2022-07-21T03:40:39;24.80;78.90
20479;DHT22;10398;52.490;13.434;2022-07-21T03:43:06;24.80;78.80
20479;DHT22;10398;52.490;13.434;2022-07-21T03:45:33;24.70;78.70
20479;DHT22;10398;52.490;13.434;2022-07-21T03:48:03;24.70;78.90
20479;DHT22;10398;52.490;13.434;2022-07-21T03:50:30;24.70;78.70
20479;DHT22;10398;52.490;13.434;2022-07-21T03:52:56;24.80;78.70
20479;DHT22;10398;52.490;13.434;2022-07-21T03:55:22;24.80;78.70
20479;DHT22;10398;52.490;13.434;2022-07-21T03:57:56;24.80;78.50
20479;DHT22;10398;52.490;13.434;2022-07-21T04:00:31;24.80;78.30
20479;DHT22;10398;52.490;13.434;2022-07-21T04:02:58;24.80;78.40
20479;DHT22;10398;52.490;13.434;2022-07-21T04:05:24;24.80;78.30
20479;DHT22;10398;52.490;13.434;2022-07-21T04:07:51;24.80;78.20
20479;DHT22;10398;52.490;13.434;2022-07-21T04:10:20;24.80;79.20
20479;DHT22;10398;52.490;13.434;2022-07-21T04:12:47;24.70;79.10
20479;DHT22;10398;52.490;13.434;2022-07-21T04:15:13;24.70;78.50
20479;DHT22;10398;52.490;13.434;2022-07-21T04:17:40;24.70;78.80
20479;DHT22;10398;52.490;13.434;2022-07-21T04:20:07;24.70;79.00
20479;DHT22;10398;52.490;13.434;2022-07-21T04:22:34;24.70;79.20
20479;DHT22;10398;52.490;13.434;2022-07-21T04:24:59;24.60;79.40
20479;DHT22;10398;52.490;13.434;2022-07-21T04:27:26;24.60;79.60
20479;DHT22;10398;52.490;13.434;2022-07-21T04:29:52;24.60;79.80
20479;DHT22;10398;52.490;13.434;2022-07-21T04:32:18;24.60;79.90
20479;DHT22;10398;52.490;13.434;2022-07-21T04:34:43;24.60;81.20
20479;DHT22;10398;52.490;13.434;2022-07-21T04:37:09;24.50;80.40
20479;DHT22;10398;52.490;13.434;2022-07-21T04:39:34;24.60;80.40
20479;DHT22;10398;52.490;13.434;2022-07-21T04:42:00;24.60;80.70
20479;DHT22;10398;52.490;13.434;2022-07-21T04:44:26;24.50;80.70
20479;DHT22;10398;52.490;13.434;2022-07-21T04:46:51;24.60;81.00
20479;DHT22;10398;52.490;13.434;2022-07-21T04:49:17;24.60;81.00
20479;DHT22;10398;52.490;13.434;2022-07-21T04:51:43;24.60;81.30
20479;DHT22;10398;52.490;13.434;2022-07-21T04:54:09;24.50;81.40
20479;DHT22;10398;52.490;13.434;2022-07-21T04:56:39;24.60;81.80
20479;DHT22;10398;52.490;13.434;2022-07-21T04:59:05;24.50;81.60
20479;DHT22;10398;52.490;13.434;2022-07-21T05:01:31;24.50;81.70
20479;DHT22;10398;52.490;13.434;2022-07-21T05:03:56;24.50;82.10
20479;DHT22;10398;52.490;13.434;2022-07-21T05:06:22;24.50;82.20
20479;DHT22;10398;52.490;13.434;2022-07-21T05:08:47;24.50;81.90
20479;DHT22;10398;52.490;13.434;2022-07-21T05:11:14;24.50;82.30
20479;DHT22;10398;52.490;13.434;2022-07-21T05:13:39;24.40;82.60
20479;DHT22;10398;52.490;13.434;2022-07-21T05:16:05;24.40;83.30
20479;DHT22;10398;52.490;13.434;2022-07-21T05:18:31;24.40;84.20
20479;DHT22;10398;52.490;13.434;2022-07-21T05:20:57;24.40;85.10
20479;DHT22;10398;52.490;13.434;2022-07-21T05:23:23;24.30;86.40
20479;DHT22;10398;52.490;13.434;2022-07-21T05:25:48;24.30;87.50
20479;DHT22;10398;52.490;13.434;2022-07-21T05:28:14;24.20;88.30
20479;DHT22;10398;52.490;13.434;2022-07-21T05:30:40;24.20;89.20
20479;DHT22;10398;52.490;13.434;2022-07-21T05:33:05;24.10;89.60
20479;DHT22;10398;52.490;13.434;2022-07-21T05:35:31;24.10;90.00
20479;DHT22;10398;52.490;13.434;2022-07-21T05:37:57;24.10;90.30
20479;DHT22;10398;52.490;13.434;2022-07-21T05:40:22;24.10;90.40
20479;DHT22;10398;52.490;13.434;2022-07-21T05:42:48;24.10;90.50
20479;DHT22;10398;52.490;13.434;2022-07-21T05:45:14;24.10;90.50
20479;DHT22;10398;52.490;13.434;2022-07-21T05:47:40;24.10;90.70
20479;DHT22;10398;52.490;13.434;2022-07-21T05:50:07;24.10;90.90
20479;DHT22;10398;52.490;13.434;2022-07-21T05:52:33;24.10;91.00
20479;DHT22;10398;52.490;13.434;2022-07-21T05:54:58;24.10;91.40
20479;DHT22;10398;52.490;13.434;2022-07-21T05:57:24;24.00;91.60
20479;DHT22;10398;52.490;13.434;2022-07-21T05:59:49;24.00;91.80
20479;DHT22;10398;52.490;13.434;2022-07-21T06:02:15;24.10;91.90
20479;DHT22;10398;52.490;13.434;2022-07-21T06:04:41;24.10;91.90
20479;DHT22;10398;52.490;13.434;2022-07-21T06:07:06;24.10;92.00
20479;DHT22;10398;52.490;13.434;2022-07-21T06:09:32;24.10;92.10
20479;DHT22;10398;52.490;13.434;2022-07-21T06:11:58;24.10;92.20
20479;DHT22;10398;52.490;13.434;2022-07-21T06:14:23;24.00;92.40
20479;DHT22;10398;52.490;13.434;2022-07-21T06:16:49;24.10;92.50
20479;DHT22;10398;52.490;13.434;2022-07-21T06:19:15;24.00;92.70
20479;DHT22;10398;52.490;13.434;2022-07-21T06:21:41;24.00;92.60
20479;DHT22;10398;52.490;13.434;2022-07-21T06:24:08;24.10;92.50
20479;DHT22;10398;52.490;13.434;2022-07-21T06:26:34;24.10;92.70
20479;DHT22;10398;52.490;13.434;2022-07-21T06:29:01;24.10;92.80
20479;DHT22;10398;52.490;13.434;2022-07-21T06:31:26;24.10;92.80
20479;DHT22;10398;52.490;13.434;2022-07-21T06:33:52;24.10;92.90
20479;DHT22;10398;52.490;13.434;2022-07-21T06:36:18;24.20;93.00
20479;DHT22;10398;52.490;13.434;2022-07-21T06:38:43;24.20;92.60
20479;DHT22;10398;52.490;13.434;2022-07-21T06:41:10;24.10;92.80
20479;DHT22;10398;52.490;13.434;2022-07-21T06:43:36;24.10;93.10
20479;DHT22;10398;52.490;13.434;2022-07-21T06:46:02;24.10;93.40
20479;DHT22;10398;52.490;13.434;2022-07-21T06:48:28;24.20;93.30
20479;DHT22;10398;52.490;13.434;2022-07-21T06:50:54;24.20;93.50
20479;DHT22;10398;52.490;13.434;2022-07-21T06:53:20;24.30;93.40
20479;DHT22;10398;52.490;13.434;2022-07-21T06:55:46;24.30;93.20
20479;DHT22;10398;52.490;13.434;2022-07-21T06:58:17;24.30;93.50
20479;DHT22;10398;52.490;13.434;2022-07-21T07:00:44;24.30;93.30
20479;DHT22;10398;52.490;13.434;2022-07-21T07:03:09;24.40;93.00
20479;DHT22;10398;52.490;13.434;2022-07-21T07:05:36;24.30;93.20
20479;DHT22;10398;52.490;13.434;2022-07-21T07:08:02;24.40;93.10
20479;DHT22;10398;52.490;13.434;2022-07-21T07:10:28;24.40;93.10
20479;DHT22;10398;52.490;13.434;2022-07-21T07:12:53;24.40;93.20
20479;DHT22;10398;52.490;13.434;2022-07-21T07:15:20;24.40;93.00
20479;DHT22;10398;52.490;13.434;2022-07-21T07:17:46;24.50;93.10
20479;DHT22;10398;52.490;13.434;2022-07-21T07:20:11;24.50;93.10
20479;DHT22;10398;52.490;13.434;2022-07-21T07:22:37;24.50;93.20
20479;DHT22;10398;52.490;13.434;2022-07-21T07:25:03;24.60;93.20
20479;DHT22;10398;52.490;13.434;2022-07-21T07:27:29;24.60;93.30
20479;DHT22;10398;52.490;13.434;2022-07-21T07:29:55;24.60;93.30
20479;DHT22;10398;52.490;13.434;2022-07-21T07:32:20;24.60;93.30
20479;DHT22;10398;52.490;13.434;2022-07-21T07:34:46;24.70;93.20
20479;DHT22;10398;52.490;13.434;2022-07-21T07:37:11;24.70;93.10
20479;DHT22;10398;52.490;13.434;2022-07-21T07:39:37;24.80;92.80
20479;DHT22;10398;52.490;13.434;2022-07-21T07:42:04;24.80;92.80
20479;DHT22;10398;52.490;13.434;2022-07-21T07:44:30;24.80;92.90
20479;DHT22;10398;52.490;13.434;2022-07-21T07:46:56;24.80;92.70
20479;DHT22;10398;52.490;13.434;2022-07-21T07:49:21;24.90;92.90
20479;DHT22;10398;52.490;13.434;2022-07-21T07:51:47;24.90;92.70
20479;DHT22;10398;52.490;13.434;2022-07-21T07:54:14;25.00;92.90
20479;DHT22;10398;52.490;13.434;2022-07-21T07:56:40;25.10;92.70
20479;DHT22;10398;52.490;13.434;2022-07-21T07:59:05;25.20;92.50
20479;DHT22;10398;52.490;13.434;2022-07-21T08:01:31;25.20;92.50
20479;DHT22;10398;52.490;13.434;2022-07-21T08:03:57;25.30;92.60
20479;DHT22;10398;52.490;13.434;2022-07-21T08:06:22;25.30;92.60
20479;DHT22;10398;52.490;13.434;2022-07-21T08:08:48;25.40;92.50
20479;DHT22;10398;52.490;13.434;2022-07-21T08:11:14;25.50;92.60
20479;DHT22;10398;52.490;13.434;2022-07-21T08:13:41;25.50;92.20
20479;DHT22;10398;52.490;13.434;2022-07-21T08:16:07;25.60;92.10
20479;DHT22;10398;52.490;13.434;2022-07-21T08:18:33;25.60;92.30
20479;DHT22;10398;52.490;13.434;2022-07-21T08:20:58;25.60;92.40
20479;DHT22;10398;52.490;13.434;2022-07-21T08:23:24;25.70;92.30
20479;DHT22;10398;52.490;13.434;2022-07-21T08:25:50;25.70;92.00
20479;DHT22;10398;52.490;13.434;2022-07-21T08:28:15;25.70;92.00
20479;DHT22;10398;52.490;13.434;2022-07-21T08:30:41;25.80;92.20
20479;DHT22;10398;52.490;13.434;2022-07-21T08:33:07;25.80;92.20
20479;DHT22;10398;52.490;13.434;2022-07-21T08:35:33;25.80;92.40
20479;DHT22;10398;52.490;13.434;2022-07-21T08:38:04;25.90;92.00
20479;DHT22;10398;52.490;13.434;2022-07-21T08:40:32;25.90;92.20
20479;DHT22;10398;52.490;13.434;2022-07-21T08:42:57;26.00;91.40
20479;DHT22;10398;52.490;13.434;2022-07-21T08:45:23;26.10;91.80
20479;DHT22;10398;52.490;13.434;2022-07-21T08:47:54;26.10;91.70
20479;DHT22;10398;52.490;13.434;2022-07-21T08:50:22;26.10;91.70
20479;DHT22;10398;52.490;13.434;2022-07-21T08:52:48;26.20;91.60
20479;DHT22;10398;52.490;13.434;2022-07-21T08:55:14;26.20;91.80
20479;DHT22;10398;52.490;13.434;2022-07-21T08:57:40;26.30;91.70
20479;DHT22;10398;52.490;13.434;2022-07-21T09:00:08;26.40;91.40
20479;DHT22;10398;52.490;13.434;2022-07-21T09:02:36;26.50;91.20
20479;DHT22;10398;52.490;13.434;2022-07-21T09:05:04;26.70;90.80
20479;DHT22;10398;52.490;13.434;2022-07-21T09:07:51;26.70;90.90
20479;DHT22;10398;52.490;13.434;2022-07-21T09:10:24;26.90;90.80
20479;DHT22;10398;52.490;13.434;2022-07-21T09:12:52;27.00;90.30
20479;DHT22;10398;52.490;13.434;2022-07-21T09:15:20;27.10;90.40
20479;DHT22;10398;52.490;13.434;2022-07-21T09:17:46;27.10;90.80
20479;DHT22;10398;52.490;13.434;2022-07-21T09:20:22;27.30;90.60
20479;DHT22;10398;52.490;13.434;2022-07-21T09:23:05;27.40;90.10
20479;DHT22;10398;52.490;13.434;2022-07-21T09:25:36;27.40;89.20
20479;DHT22;10398;52.490;13.434;2022-07-21T09:28:18;27.40;89.70
20479;DHT22;10398;52.490;13.434;2022-07-21T09:33:26;27.40;88.00
20479;DHT22;10398;52.490;13.434;2022-07-21T09:36:18;27.40;88.30
20479;DHT22;10398;52.490;13.434;2022-07-21T09:38:50;27.50;88.70
20479;DHT22;10398;52.490;13.434;2022-07-21T09:41:24;27.50;88.40
20479;DHT22;10398;52.490;13.434;2022-07-21T09:43:55;27.60;88.80
20479;DHT22;10398;52.490;13.434;2022-07-21T09:46:29;27.70;86.90
20479;DHT22;10398;52.490;13.434;2022-07-21T09:48:57;27.70;86.70
20479;DHT22;10398;52.490;13.434;2022-07-21T09:51:27;27.70;86.80
20479;DHT22;10398;52.490;13.434;2022-07-21T09:56:19;27.80;86.40
20479;DHT22;10398;52.490;13.434;2022-07-21T09:58:47;27.80;86.60
20479;DHT22;10398;52.490;13.434;2022-07-21T10:01:14;27.80;86.50
20479;DHT22;10398;52.490;13.434;2022-07-21T10:03:41;27.90;86.10
20479;DHT22;10398;52.490;13.434;2022-07-21T10:06:08;27.90;85.30
20479;DHT22;10398;52.490;13.434;2022-07-21T10:08:35;27.90;85.20
20479;DHT22;10398;52.490;13.434;2022-07-21T10:11:02;27.90;85.60
20479;DHT22;10398;52.490;13.434;2022-07-21T10:13:28;28.00;84.60
20479;DHT22;10398;52.490;13.434;2022-07-21T10:15:54;28.10;84.90
20479;DHT22;10398;52.490;13.434;2022-07-21T10:18:22;28.20;83.70
20479;DHT22;10398;52.490;13.434;2022-07-21T10:24:02;28.20;82.80
20479;DHT22;10398;52.490;13.434;2022-07-21T10:26:29;28.30;83.20
20479;DHT22;10398;52.490;13.434;2022-07-21T10:28:54;28.30;82.90
20479;DHT22;10398;52.490;13.434;2022-07-21T10:31:22;28.30;82.30
20479;DHT22;10398;52.490;13.434;2022-07-21T10:41:42;28.20;81.90
20479;DHT22;10398;52.490;13.434;2022-07-21T10:47:43;28.10;82.80
20479;DHT22;10398;52.490;13.434;2022-07-21T10:50:03;28.10;83.20
20479;DHT22;10398;52.490;13.434;2022-07-21T10:52:56;28.10;83.20
20479;DHT22;10398;52.490;13.434;2022-07-21T10:55:26;28.00;82.30
20479;DHT22;10398;52.490;13.434;2022-07-21T11:00:57;28.00;81.90
20479;DHT22;10398;52.490;13.434;2022-07-21T11:21:57;28.10;82.40
20479;DHT22;10398;52.490;13.434;2022-07-21T11:24:25;28.10;83.40
20479;DHT22;10398;52.490;13.434;2022-07-21T11:27:00;28.10;81.40
20479;DHT22;10398;52.490;13.434;2022-07-21T11:29:26;28.10;82.10
20479;DHT22;10398;52.490;13.434;2022-07-21T11:31:52;28.10;82.00
20479;DHT22;10398;52.490;13.434;2022-07-21T11:34:18;28.20;82.30
20479;DHT22;10398;52.490;13.434;2022-07-21T11:36:44;28.30;82.10
20479;DHT22;10398;52.490;13.434;2022-07-21T11:39:14;28.30;81.10
20479;DHT22;10398;52.490;13.434;2022-07-21T11:41:41;28.40;80.40
20479;DHT22;10398;52.490;13.434;2022-07-21T11:44:11;28.30;81.00
20479;DHT22;10398;52.490;13.434;2022-07-21T11:46:54;28.30;80.50
20479;DHT22;10398;52.490;13.434;2022-07-21T11:49:20;28.20;80.90
20479;DHT22;10398;52.490;13.434;2022-07-21T11:51:51;28.20;80.80
20479;DHT22;10398;52.490;13.434;2022-07-21T11:54:26;28.10;81.50
20479;DHT22;10398;52.490;13.434;2022-07-21T11:56:53;28.10;81.90
20479;DHT22;10398;52.490;13.434;2022-07-21T11:59:19;28.10;81.60
20479;DHT22;10398;52.490;13.434;2022-07-21T12:01:56;28.00;81.80
20479;DHT22;10398;52.490;13.434;2022-07-21T12:04:30;28.00;82.60
20479;DHT22;10398;52.490;13.434;2022-07-21T12:06:57;28.00;82.80
20479;DHT22;10398;52.490;13.434;2022-07-21T12:09:23;27.90;82.90
20479;DHT22;10398;52.490;13.434;2022-07-21T12:11:50;27.90;83.10
20479;DHT22;10398;52.490;13.434;2022-07-21T12:14:15;27.90;83.80
20479;DHT22;10398;52.490;13.434;2022-07-21T12:16:50;27.80;83.40
20479;DHT22;10398;52.490;13.434;2022-07-21T12:19:17;27.70;83.90
20479;DHT22;10398;52.490;13.434;2022-07-21T12:21:51;27.60;84.20
20479;DHT22;10398;52.490;13.434;2022-07-21T12:24:17;27.60;83.90
20479;DHT22;10398;52.490;13.434;2022-07-21T12:26:44;27.50;84.00
20479;DHT22;10398;52.490;13.434;2022-07-21T12:29:10;27.40;84.60
20479;DHT22;10398;52.490;13.434;2022-07-21T12:31:37;27.30;84.80
20479;DHT22;10398;52.490;13.434;2022-07-21T12:34:15;27.30;85.00
20479;DHT22;10398;52.490;13.434;2022-07-21T12:36:45;27.20;85.20
20479;DHT22;10398;52.490;13.434;2022-07-21T12:42:07;27.10;85.40
20479;DHT22;10398;52.490;13.434;2022-07-21T12:44:33;27.00;86.90
20479;DHT22;10398;52.490;13.434;2022-07-21T12:47:19;26.90;87.60
20479;DHT22;10398;52.490;13.434;2022-07-21T12:50:00;26.90;89.10
20479;DHT22;10398;52.490;13.434;2022-07-21T12:52:27;26.90;89.60
20479;DHT22;10398;52.490;13.434;2022-07-21T12:54:53;26.90;89.50
20479;DHT22;10398;52.490;13.434;2022-07-21T12:57:18;26.80;90.00
20479;DHT22;10398;52.490;13.434;2022-07-21T12:59:44;26.80;90.50
20479;DHT22;10398;52.490;13.434;2022-07-21T13:02:10;26.70;90.50
20479;DHT22;10398;52.490;13.434;2022-07-21T13:04:36;26.70;90.80
20479;DHT22;10398;52.490;13.434;2022-07-21T13:07:01;26.70;90.90
20479;DHT22;10398;52.490;13.434;2022-07-21T13:09:27;26.70;91.30
20479;DHT22;10398;52.490;13.434;2022-07-21T13:11:53;26.60;91.70
20479;DHT22;10398;52.490;13.434;2022-07-21T13:14:19;26.50;92.50
20479;DHT22;10398;52.490;13.434;2022-07-21T13:16:44;26.40;93.10
20479;DHT22;10398;52.490;13.434;2022-07-21T13:19:10;26.30;93.60
20479;DHT22;10398;52.490;13.434;2022-07-21T13:21:35;26.20;94.80
20479;DHT22;10398;52.490;13.434;2022-07-21T13:24:01;26.10;95.80
20479;DHT22;10398;52.490;13.434;2022-07-21T13:26:27;26.00;96.70
20479;DHT22;10398;52.490;13.434;2022-07-21T13:28:54;25.90;97.40
20479;DHT22;10398;52.490;13.434;2022-07-21T13:31:19;25.80;98.10
20479;DHT22;10398;52.490;13.434;2022-07-21T13:33:46;25.70;98.30
20479;DHT22;10398;52.490;13.434;2022-07-21T13:36:12;25.70;99.00
20479;DHT22;10398;52.490;13.434;2022-07-21T13:38:38;25.60;99.90
20479;DHT22;10398;52.490;13.434;2022-07-21T13:41:04;25.50;99.90
20479;DHT22;10398;52.490;13.434;2022-07-21T13:43:30;25.40;99.90
20479;DHT22;10398;52.490;13.434;2022-07-21T13:45:55;25.30;99.90
20479;DHT22;10398;52.490;13.434;2022-07-21T13:48:21;25.20;99.90
20479;DHT22;10398;52.490;13.434;2022-07-21T13:50:47;25.10;99.90
20479;DHT22;10398;52.490;13.434;2022-07-21T13:53:12;25.00;99.90
20479;DHT22;10398;52.490;13.434;2022-07-21T13:55:38;25.00;99.90
20479;DHT22;10398;52.490;13.434;2022-07-21T13:58:04;25.00;99.90
20479;DHT22;10398;52.490;13.434;2022-07-21T14:00:32;24.90;99.90
20479;DHT22;10398;52.490;13.434;2022-07-21T14:02:58;24.80;99.90
20479;DHT22;10398;52.490;13.434;2022-07-21T14:05:23;24.70;99.90
20479;DHT22;10398;52.490;13.434;2022-07-21T14:07:49;24.70;99.90
20479;DHT22;10398;52.490;13.434;2022-07-21T14:10:15;24.60;99.90
20479;DHT22;10398;52.490;13.434;2022-07-21T14:12:41;24.60;99.90
20479;DHT22;10398;52.490;13.434;2022-07-21T14:15:07;24.60;99.90
20479;DHT22;10398;52.490;13.434;2022-07-21T14:17:33;24.60;99.90
20479;DHT22;10398;52.490;13.434;2022-07-21T14:19:59;24.50;99.90
20479;DHT22;10398;52.490;13.434;2022-07-21T14:22:24;24.50;99.90
20479;DHT22;10398;52.490;13.434;2022-07-21T14:24:50;24.50;99.90
20479;DHT22;10398;52.490;13.434;2022-07-21T14:27:34;24.50;99.90
20479;DHT22;10398;52.490;13.434;2022-07-21T14:30:00;24.50;99.90
20479;DHT22;10398;52.490;13.434;2022-07-21T14:32:26;24.50;99.90
20479;DHT22;10398;52.490;13.434;2022-07-21T14:34:52;24.60;99.90
20479;DHT22;10398;52.490;13.434;2022-07-21T14:37:19;24.60;99.90
20479;DHT22;10398;52.490;13.434;2022-07-21T14:39:48;24.70;99.90
20479;DHT22;10398;52.490;13.434;2022-07-21T14:42:14;24.80;99.90
20479;DHT22;10398;52.490;13.434;2022-07-21T14:44:40;24.90;99.90
20479;DHT22;10398;52.490;13.434;2022-07-21T14:47:06;25.00;99.90
20479;DHT22;10398;52.490;13.434;2022-07-21T14:49:33;25.00;99.90
20479;DHT22;10398;52.490;13.434;2022-07-21T14:51:59;25.00;99.90
20479;DHT22;10398;52.490;13.434;2022-07-21T14:54:25;24.90;99.90
20479;DHT22;10398;52.490;13.434;2022-07-21T14:56:51;25.00;99.90
20479;DHT22;10398;52.490;13.434;2022-07-21T14:59:16;25.00;99.90
20479;DHT22;10398;52.490;13.434;2022-07-21T15:01:42;25.10;99.90
20479;DHT22;10398;52.490;13.434;2022-07-21T15:04:08;25.30;99.90
20479;DHT22;10398;52.490;13.434;2022-07-21T15:06:34;25.40;99.90
20479;DHT22;10398;52.490;13.434;2022-07-21T15:08:59;25.50;99.90
20479;DHT22;10398;52.490;13.434;2022-07-21T15:11:25;25.60;99.90
20479;DHT22;10398;52.490;13.434;2022-07-21T15:13:51;25.60;99.90
20479;DHT22;10398;52.490;13.434;2022-07-21T15:16:17;25.50;99.90
20479;DHT22;10398;52.490;13.434;2022-07-21T15:18:42;25.50;99.90
20479;DHT22;10398;52.490;13.434;2022-07-21T15:21:08;25.50;99.90
20479;DHT22;10398;52.490;13.434;2022-07-21T15:23:33;25.50;99.90
20479;DHT22;10398;52.490;13.434;2022-07-21T15:25:59;25.40;99.90
20479;DHT22;10398;52.490;13.434;2022-07-21T15:28:25;25.30;99.90
20479;DHT22;10398;52.490;13.434;2022-07-21T15:30:50;25.30;99.90
20479;DHT22;10398;52.490;13.434;2022-07-21T15:33:16;25.40;99.90
20479;DHT22;10398;52.490;13.434;2022-07-21T15:35:42;25.40;99.90
20479;DHT22;10398;52.490;13.434;2022-07-21T15:38:08;25.50;99.90
20479;DHT22;10398;52.490;13.434;2022-07-21T15:40:34;25.50;99.90
20479;DHT22;10398;52.490;13.434;2022-07-21T15:42:59;25.70;99.90
20479;DHT22;10398;52.490;13.434;2022-07-21T15:45:25;25.80;99.90
20479;DHT22;10398;52.490;13.434;2022-07-21T15:47:51;26.00;99.90
20479;DHT22;10398;52.490;13.434;2022-07-21T15:50:16;26.00;99.90
20479;DHT22;10398;52.490;13.434;2022-07-21T15:52:42;26.00;99.90
20479;DHT22;10398;52.490;13.434;2022-07-21T15:55:09;26.00;99.90
20479;DHT22;10398;52.490;13.434;2022-07-21T15:57:36;25.90;99.90